sensor_id;sensor_type;location;lat;lon;timestamp;P1;durP1;ratioP1;P2;durP2;ratioP2
52380;SDS011;38310;52.796;6.942;2023-11-19T00:02:14;34.70;;;23.23;;
52380;SDS011;38310;52.796;6.942;2023-11-19T00:04:40;34.22;;;23.85;;
52380;SDS011;38310;52.796;6.942;2023-11-19T00:07:06;33.70;;;24.85;;
52380;SDS011;38310;52.796;6.942;2023-11-19T00:09:35;34.80;;;24.85;;
52380;SDS011;38310;52.796;6.942;2023-11-19T00:12:05;36.63;;;24.83;;
52380;SDS011;38310;52.796;6.942;2023-11-19T00:14:32;36.13;;;24.90;;
52380;SDS011;38310;52.796;6.942;2023-11-19T00:16:59;36.00;;;25.48;;
52380;SDS011;38310;52.796;6.942;2023-11-19T00:19:25;36.72;;;25.35;;
52380;SDS011;38310;52.796;6.942;2023-11-19T00:21:52;39.35;;;25.17;;
52380;SDS011;38310;52.796;6.942;2023-11-19T00:24:18;35.13;;;24.98;;
52380;SDS011;38310;52.796;6.942;2023-11-19T00:26:45;37.17;;;24.88;;
52380;SDS011;38310;52.796;6.942;2023-11-19T00:29:15;34.72;;;24.15;;
52380;SDS011;38310;52.796;6.942;2023-11-19T00:31:41;38.25;;;26.25;;
52380;SDS011;38310;52.796;6.942;2023-11-19T00:34:06;39.58;;;24.77;;
52380;SDS011;38310;52.796;6.942;2023-11-19T00:36:32;37.92;;;26.00;;
52380;SDS011;38310;52.796;6.942;2023-11-19T00:38:58;38.45;;;26.50;;
52380;SDS011;38310;52.796;6.942;2023-11-19T00:41:24;38.13;;;25.98;;
52380;SDS011;38310;52.796;6.942;2023-11-19T00:43:50;49.60;;;27.63;;
52380;SDS011;38310;52.796;6.942;2023-11-19T00:46:16;44.88;;;28.05;;
52380;SDS011;38310;52.796;6.942;2023-11-19T00:48:42;47.53;;;30.70;;
52380;SDS011;38310;52.796;6.942;2023-11-19T00:51:07;44.20;;;28.42;;
52380;SDS011;38310;52.796;6.942;2023-11-19T00:53:33;46.53;;;31.08;;
52380;SDS011;38310;52.796;6.942;2023-11-19T00:55:59;47.88;;;28.88;;
52380;SDS011;38310;52.796;6.942;2023-11-19T00:58:25;41.90;;;27.05;;
52380;SDS011;38310;52.796;6.942;2023-11-19T01:00:52;43.30;;;29.05;;
52380;SDS011;38310;52.796;6.942;2023-11-19T01:03:18;42.67;;;27.30;;
52380;SDS011;38310;52.796;6.942;2023-11-19T01:05:43;50.40;;;30.65;;
52380;SDS011;38310;52.796;6.942;2023-11-19T01:08:11;42.95;;;30.08;;
52380;SDS011;38310;52.796;6.942;2023-11-19T01:10:37;47.70;;;30.50;;
52380;SDS011;38310;52.796;6.942;2023-11-19T01:13:03;44.03;;;28.83;;
52380;SDS011;38310;52.796;6.942;2023-11-19T01:15:33;45.00;;;30.27;;
52380;SDS011;38310;52.796;6.942;2023-11-19T01:17:59;55.22;;;36.42;;
52380;SDS011;38310;52.796;6.942;2023-11-19T01:20:30;49.35;;;31.70;;
52380;SDS011;38310;52.796;6.942;2023-11-19T01:22:55;47.22;;;30.58;;
52380;SDS011;38310;52.796;6.942;2023-11-19T01:25:21;47.50;;;28.98;;
52380;SDS011;38310;52.796;6.942;2023-11-19T01:27:47;46.42;;;30.75;;
52380;SDS011;38310;52.796;6.942;2023-11-19T01:30:13;47.63;;;31.88;;
52380;SDS011;38310;52.796;6.942;2023-11-19T01:32:39;47.15;;;29.55;;
52380;SDS011;38310;52.796;6.942;2023-11-19T01:35:05;44.08;;;30.75;;
52380;SDS011;38310;52.796;6.942;2023-11-19T01:37:33;49.53;;;29.20;;
52380;SDS011;38310;52.796;6.942;2023-11-19T01:40:00;42.60;;;28.20;;
52380;SDS011;38310;52.796;6.942;2023-11-19T01:42:28;44.10;;;28.50;;
52380;SDS011;38310;52.796;6.942;2023-11-19T01:45:00;47.38;;;27.85;;
52380;SDS011;38310;52.796;6.942;2023-11-19T01:47:30;40.80;;;27.38;;
52380;SDS011;38310;52.796;6.942;2023-11-19T01:49:56;45.40;;;30.02;;
52380;SDS011;38310;52.796;6.942;2023-11-19T01:52:22;45.88;;;28.60;;
52380;SDS011;38310;52.796;6.942;2023-11-19T01:54:50;40.17;;;24.35;;
52380;SDS011;38310;52.796;6.942;2023-11-19T01:57:18;42.88;;;26.23;;
52380;SDS011;38310;52.796;6.942;2023-11-19T01:59:44;39.38;;;25.88;;
52380;SDS011;38310;52.796;6.942;2023-11-19T02:02:10;43.45;;;24.73;;
52380;SDS011;38310;52.796;6.942;2023-11-19T02:04:38;42.38;;;25.15;;
52380;SDS011;38310;52.796;6.942;2023-11-19T02:07:03;40.47;;;24.60;;
52380;SDS011;38310;52.796;6.942;2023-11-19T02:09:30;50.50;;;26.08;;
52380;SDS011;38310;52.796;6.942;2023-11-19T02:11:55;40.45;;;22.70;;
52380;SDS011;38310;52.796;6.942;2023-11-19T02:14:25;42.30;;;24.35;;
52380;SDS011;38310;52.796;6.942;2023-11-19T02:16:52;35.35;;;22.90;;
52380;SDS011;38310;52.796;6.942;2023-11-19T02:19:20;38.13;;;21.80;;
52380;SDS011;38310;52.796;6.942;2023-11-19T02:21:46;35.95;;;22.85;;
52380;SDS011;38310;52.796;6.942;2023-11-19T02:24:14;41.15;;;21.83;;
52380;SDS011;38310;52.796;6.942;2023-11-19T02:26:44;33.00;;;20.50;;
52380;SDS011;38310;52.796;6.942;2023-11-19T02:29:18;43.58;;;22.60;;
52380;SDS011;38310;52.796;6.942;2023-11-19T02:31:43;39.97;;;20.77;;
52380;SDS011;38310;52.796;6.942;2023-11-19T02:34:10;35.78;;;19.48;;
52380;SDS011;38310;52.796;6.942;2023-11-19T02:36:37;36.80;;;19.27;;
52380;SDS011;38310;52.796;6.942;2023-11-19T02:39:03;36.45;;;19.27;;
52380;SDS011;38310;52.796;6.942;2023-11-19T02:41:33;35.97;;;17.35;;
52380;SDS011;38310;52.796;6.942;2023-11-19T02:43:59;36.35;;;18.15;;
52380;SDS011;38310;52.796;6.942;2023-11-19T02:46:25;33.95;;;18.05;;
52380;SDS011;38310;52.796;6.942;2023-11-19T02:48:51;30.15;;;16.23;;
52380;SDS011;38310;52.796;6.942;2023-11-19T02:51:17;31.63;;;16.20;;
52380;SDS011;38310;52.796;6.942;2023-11-19T02:53:43;32.88;;;14.80;;
52380;SDS011;38310;52.796;6.942;2023-11-19T02:56:09;42.03;;;17.60;;
52380;SDS011;38310;52.796;6.942;2023-11-19T02:58:45;27.92;;;14.60;;
52380;SDS011;38310;52.796;6.942;2023-11-19T03:01:11;39.00;;;16.25;;
52380;SDS011;38310;52.796;6.942;2023-11-19T03:03:49;27.83;;;13.93;;
52380;SDS011;38310;52.796;6.942;2023-11-19T03:06:20;32.60;;;12.80;;
52380;SDS011;38310;52.796;6.942;2023-11-19T03:08:49;34.70;;;13.55;;
52380;SDS011;38310;52.796;6.942;2023-11-19T03:11:15;34.17;;;12.60;;
52380;SDS011;38310;52.796;6.942;2023-11-19T03:13:41;31.95;;;11.50;;
52380;SDS011;38310;52.796;6.942;2023-11-19T03:16:07;28.42;;;10.32;;
52380;SDS011;38310;52.796;6.942;2023-11-19T03:18:33;25.58;;;10.07;;
52380;SDS011;38310;52.796;6.942;2023-11-19T03:20:58;34.10;;;10.63;;
52380;SDS011;38310;52.796;6.942;2023-11-19T03:23:25;35.63;;;10.52;;
52380;SDS011;38310;52.796;6.942;2023-11-19T03:25:53;32.17;;;10.05;;
52380;SDS011;38310;52.796;6.942;2023-11-19T03:28:19;28.20;;;9.90;;
52380;SDS011;38310;52.796;6.942;2023-11-19T03:30:44;30.75;;;9.80;;
52380;SDS011;38310;52.796;6.942;2023-11-19T03:33:10;29.13;;;10.25;;
52380;SDS011;38310;52.796;6.942;2023-11-19T03:35:36;37.72;;;9.65;;
52380;SDS011;38310;52.796;6.942;2023-11-19T03:38:02;35.65;;;10.25;;
52380;SDS011;38310;52.796;6.942;2023-11-19T03:40:28;24.00;;;8.65;;
52380;SDS011;38310;52.796;6.942;2023-11-19T03:42:55;35.63;;;9.85;;
52380;SDS011;38310;52.796;6.942;2023-11-19T03:45:23;37.92;;;10.75;;
52380;SDS011;38310;52.796;6.942;2023-11-19T03:47:50;38.80;;;9.70;;
52380;SDS011;38310;52.796;6.942;2023-11-19T03:50:16;31.00;;;9.68;;
52380;SDS011;38310;52.796;6.942;2023-11-19T03:52:41;30.80;;;10.45;;
52380;SDS011;38310;52.796;6.942;2023-11-19T03:55:07;25.48;;;7.63;;
52380;SDS011;38310;52.796;6.942;2023-11-19T03:57:34;25.73;;;8.95;;
52380;SDS011;38310;52.796;6.942;2023-11-19T04:00:01;29.65;;;8.85;;
52380;SDS011;38310;52.796;6.942;2023-11-19T04:02:34;27.15;;;8.27;;
52380;SDS011;38310;52.796;6.942;2023-11-19T04:04:59;34.20;;;9.63;;
52380;SDS011;38310;52.796;6.942;2023-11-19T04:07:25;31.48;;;10.02;;
52380;SDS011;38310;52.796;6.942;2023-11-19T04:09:51;29.88;;;9.48;;
52380;SDS011;38310;52.796;6.942;2023-11-19T04:12:16;36.75;;;10.40;;
52380;SDS011;38310;52.796;6.942;2023-11-19T04:14:42;31.48;;;9.23;;
52380;SDS011;38310;52.796;6.942;2023-11-19T04:17:09;32.88;;;9.40;;
52380;SDS011;38310;52.796;6.942;2023-11-19T04:19:35;38.25;;;9.52;;
52380;SDS011;38310;52.796;6.942;2023-11-19T04:22:01;27.23;;;9.15;;
52380;SDS011;38310;52.796;6.942;2023-11-19T04:24:27;35.83;;;9.30;;
52380;SDS011;38310;52.796;6.942;2023-11-19T04:26:53;39.05;;;10.45;;
52380;SDS011;38310;52.796;6.942;2023-11-19T04:29:18;33.10;;;9.52;;
52380;SDS011;38310;52.796;6.942;2023-11-19T04:31:44;27.33;;;9.75;;
52380;SDS011;38310;52.796;6.942;2023-11-19T04:34:11;34.15;;;9.93;;
52380;SDS011;38310;52.796;6.942;2023-11-19T04:36:37;31.52;;;9.85;;
52380;SDS011;38310;52.796;6.942;2023-11-19T04:39:03;26.35;;;9.27;;
52380;SDS011;38310;52.796;6.942;2023-11-19T04:41:49;34.15;;;9.25;;
52380;SDS011;38310;52.796;6.942;2023-11-19T04:44:17;32.75;;;10.00;;
52380;SDS011;38310;52.796;6.942;2023-11-19T04:46:43;34.38;;;9.70;;
52380;SDS011;38310;52.796;6.942;2023-11-19T04:49:09;39.17;;;10.32;;
52380;SDS011;38310;52.796;6.942;2023-11-19T04:51:42;31.80;;;10.30;;
52380;SDS011;38310;52.796;6.942;2023-11-19T04:54:09;34.85;;;9.27;;
52380;SDS011;38310;52.796;6.942;2023-11-19T04:56:36;32.60;;;9.68;;
52380;SDS011;38310;52.796;6.942;2023-11-19T04:59:05;35.90;;;10.25;;
52380;SDS011;38310;52.796;6.942;2023-11-19T05:01:35;36.65;;;10.15;;
52380;SDS011;38310;52.796;6.942;2023-11-19T05:04:00;34.33;;;10.18;;
52380;SDS011;38310;52.796;6.942;2023-11-19T05:06:30;36.15;;;11.13;;
52380;SDS011;38310;52.796;6.942;2023-11-19T05:08:58;29.17;;;9.68;;
52380;SDS011;38310;52.796;6.942;2023-11-19T05:11:29;36.28;;;10.02;;
52380;SDS011;38310;52.796;6.942;2023-11-19T05:13:56;35.22;;;10.43;;
52380;SDS011;38310;52.796;6.942;2023-11-19T05:16:22;35.72;;;10.48;;
52380;SDS011;38310;52.796;6.942;2023-11-19T05:18:47;38.63;;;10.48;;
52380;SDS011;38310;52.796;6.942;2023-11-19T05:21:14;36.63;;;10.40;;
52380;SDS011;38310;52.796;6.942;2023-11-19T05:23:40;43.00;;;10.15;;
52380;SDS011;38310;52.796;6.942;2023-11-19T05:26:07;34.17;;;10.65;;
52380;SDS011;38310;52.796;6.942;2023-11-19T05:28:32;34.00;;;10.13;;
52380;SDS011;38310;52.796;6.942;2023-11-19T05:30:58;35.58;;;10.50;;
52380;SDS011;38310;52.796;6.942;2023-11-19T05:33:24;36.60;;;10.88;;
52380;SDS011;38310;52.796;6.942;2023-11-19T05:35:50;39.28;;;11.02;;
52380;SDS011;38310;52.796;6.942;2023-11-19T05:38:15;39.10;;;11.23;;
52380;SDS011;38310;52.796;6.942;2023-11-19T05:40:41;32.83;;;9.77;;
52380;SDS011;38310;52.796;6.942;2023-11-19T05:43:07;42.60;;;10.00;;
52380;SDS011;38310;52.796;6.942;2023-11-19T05:45:33;31.98;;;9.90;;
52380;SDS011;38310;52.796;6.942;2023-11-19T05:47:58;36.97;;;9.98;;
52380;SDS011;38310;52.796;6.942;2023-11-19T05:50:24;39.55;;;10.73;;
52380;SDS011;38310;52.796;6.942;2023-11-19T05:52:50;39.47;;;11.20;;
52380;SDS011;38310;52.796;6.942;2023-11-19T05:55:18;36.65;;;10.50;;
52380;SDS011;38310;52.796;6.942;2023-11-19T05:57:44;36.72;;;11.50;;
52380;SDS011;38310;52.796;6.942;2023-11-19T06:00:10;31.55;;;9.93;;
52380;SDS011;38310;52.796;6.942;2023-11-19T06:02:38;35.70;;;10.70;;
52380;SDS011;38310;52.796;6.942;2023-11-19T06:05:04;40.08;;;11.30;;
52380;SDS011;38310;52.796;6.942;2023-11-19T06:07:31;32.90;;;10.15;;
52380;SDS011;38310;52.796;6.942;2023-11-19T06:09:57;36.47;;;10.82;;
52380;SDS011;38310;52.796;6.942;2023-11-19T06:12:23;33.22;;;10.65;;
52380;SDS011;38310;52.796;6.942;2023-11-19T06:14:49;39.05;;;10.35;;
52380;SDS011;38310;52.796;6.942;2023-11-19T06:17:14;42.67;;;10.45;;
52380;SDS011;38310;52.796;6.942;2023-11-19T06:19:40;42.03;;;11.88;;
52380;SDS011;38310;52.796;6.942;2023-11-19T06:22:06;39.25;;;11.18;;
52380;SDS011;38310;52.796;6.942;2023-11-19T06:24:31;40.92;;;10.68;;
52380;SDS011;38310;52.796;6.942;2023-11-19T06:26:57;32.17;;;9.90;;
52380;SDS011;38310;52.796;6.942;2023-11-19T06:29:23;35.05;;;10.43;;
52380;SDS011;38310;52.796;6.942;2023-11-19T06:31:49;33.30;;;10.10;;
52380;SDS011;38310;52.796;6.942;2023-11-19T06:34:15;35.78;;;10.35;;
52380;SDS011;38310;52.796;6.942;2023-11-19T06:36:41;33.08;;;11.10;;
52380;SDS011;38310;52.796;6.942;2023-11-19T06:39:10;44.72;;;11.65;;
52380;SDS011;38310;52.796;6.942;2023-11-19T06:41:36;33.88;;;10.25;;
52380;SDS011;38310;52.796;6.942;2023-11-19T06:44:03;35.60;;;10.75;;
52380;SDS011;38310;52.796;6.942;2023-11-19T06:46:30;36.08;;;11.15;;
52380;SDS011;38310;52.796;6.942;2023-11-19T06:48:56;30.38;;;9.45;;
52380;SDS011;38310;52.796;6.942;2023-11-19T06:51:22;33.30;;;10.50;;
52380;SDS011;38310;52.796;6.942;2023-11-19T06:53:49;36.60;;;11.80;;
52380;SDS011;38310;52.796;6.942;2023-11-19T06:56:22;33.28;;;9.98;;
52380;SDS011;38310;52.796;6.942;2023-11-19T06:58:49;40.58;;;11.68;;
52380;SDS011;38310;52.796;6.942;2023-11-19T07:01:15;38.00;;;11.60;;
52380;SDS011;38310;52.796;6.942;2023-11-19T07:03:43;39.97;;;9.80;;
52380;SDS011;38310;52.796;6.942;2023-11-19T07:06:12;37.35;;;10.57;;
52380;SDS011;38310;52.796;6.942;2023-11-19T07:08:38;29.02;;;10.35;;
52380;SDS011;38310;52.796;6.942;2023-11-19T07:11:06;37.13;;;10.23;;
52380;SDS011;38310;52.796;6.942;2023-11-19T07:13:35;38.80;;;10.82;;
52380;SDS011;38310;52.796;6.942;2023-11-19T07:16:01;35.42;;;10.25;;
52380;SDS011;38310;52.796;6.942;2023-11-19T07:18:26;28.77;;;9.90;;
52380;SDS011;38310;52.796;6.942;2023-11-19T07:20:52;34.92;;;10.18;;
52380;SDS011;38310;52.796;6.942;2023-11-19T07:23:18;42.50;;;11.18;;
52380;SDS011;38310;52.796;6.942;2023-11-19T07:25:44;37.63;;;10.48;;
52380;SDS011;38310;52.796;6.942;2023-11-19T07:28:12;34.28;;;10.00;;
52380;SDS011;38310;52.796;6.942;2023-11-19T07:30:38;29.88;;;10.35;;
52380;SDS011;38310;52.796;6.942;2023-11-19T07:33:04;37.10;;;11.30;;
52380;SDS011;38310;52.796;6.942;2023-11-19T07:35:31;32.08;;;11.18;;
52380;SDS011;38310;52.796;6.942;2023-11-19T07:37:57;41.05;;;11.27;;
52380;SDS011;38310;52.796;6.942;2023-11-19T07:40:23;39.58;;;10.80;;
52380;SDS011;38310;52.796;6.942;2023-11-19T07:42:49;40.20;;;11.25;;
52380;SDS011;38310;52.796;6.942;2023-11-19T07:45:16;40.17;;;10.57;;
52380;SDS011;38310;52.796;6.942;2023-11-19T07:47:42;33.63;;;11.05;;
52380;SDS011;38310;52.796;6.942;2023-11-19T07:50:11;37.10;;;10.70;;
52380;SDS011;38310;52.796;6.942;2023-11-19T07:52:39;40.15;;;10.70;;
52380;SDS011;38310;52.796;6.942;2023-11-19T07:55:05;40.55;;;12.60;;
52380;SDS011;38310;52.796;6.942;2023-11-19T07:57:31;44.25;;;11.45;;
52380;SDS011;38310;52.796;6.942;2023-11-19T07:59:57;33.20;;;11.07;;
52380;SDS011;38310;52.796;6.942;2023-11-19T08:02:23;42.30;;;11.00;;
52380;SDS011;38310;52.796;6.942;2023-11-19T08:04:49;34.38;;;11.40;;
52380;SDS011;38310;52.796;6.942;2023-11-19T08:07:17;40.30;;;11.50;;
52380;SDS011;38310;52.796;6.942;2023-11-19T08:09:44;43.17;;;10.65;;
52380;SDS011;38310;52.796;6.942;2023-11-19T08:12:10;35.15;;;9.80;;
52380;SDS011;38310;52.796;6.942;2023-11-19T08:14:36;38.13;;;10.90;;
52380;SDS011;38310;52.796;6.942;2023-11-19T08:17:05;36.15;;;10.98;;
52380;SDS011;38310;52.796;6.942;2023-11-19T08:19:30;37.38;;;10.43;;
52380;SDS011;38310;52.796;6.942;2023-11-19T08:21:56;33.47;;;10.80;;
52380;SDS011;38310;52.796;6.942;2023-11-19T08:24:22;33.30;;;9.98;;
52380;SDS011;38310;52.796;6.942;2023-11-19T08:26:48;36.38;;;10.20;;
52380;SDS011;38310;52.796;6.942;2023-11-19T08:29:14;40.28;;;11.05;;
52380;SDS011;38310;52.796;6.942;2023-11-19T08:31:39;37.00;;;9.73;;
52380;SDS011;38310;52.796;6.942;2023-11-19T08:34:05;34.55;;;10.18;;
52380;SDS011;38310;52.796;6.942;2023-11-19T08:36:34;32.80;;;10.68;;
52380;SDS011;38310;52.796;6.942;2023-11-19T08:39:00;38.42;;;10.55;;
52380;SDS011;38310;52.796;6.942;2023-11-19T08:41:26;37.08;;;9.68;;
52380;SDS011;38310;52.796;6.942;2023-11-19T08:43:52;39.42;;;10.55;;
52380;SDS011;38310;52.796;6.942;2023-11-19T08:46:18;31.40;;;10.50;;
52380;SDS011;38310;52.796;6.942;2023-11-19T08:48:44;34.28;;;9.85;;
52380;SDS011;38310;52.796;6.942;2023-11-19T08:51:11;37.78;;;12.07;;
52380;SDS011;38310;52.796;6.942;2023-11-19T08:53:37;33.75;;;9.75;;
52380;SDS011;38310;52.796;6.942;2023-11-19T08:56:03;34.35;;;10.93;;
52380;SDS011;38310;52.796;6.942;2023-11-19T08:58:30;38.38;;;10.93;;
52380;SDS011;38310;52.796;6.942;2023-11-19T09:00:56;39.17;;;11.35;;
52380;SDS011;38310;52.796;6.942;2023-11-19T09:03:22;42.17;;;10.32;;
52380;SDS011;38310;52.796;6.942;2023-11-19T09:05:49;36.65;;;9.52;;
52380;SDS011;38310;52.796;6.942;2023-11-19T09:08:14;36.17;;;10.27;;
52380;SDS011;38310;52.796;6.942;2023-11-19T09:10:40;39.78;;;11.23;;
52380;SDS011;38310;52.796;6.942;2023-11-19T09:13:06;45.00;;;10.27;;
52380;SDS011;38310;52.796;6.942;2023-11-19T09:15:32;31.63;;;11.07;;
52380;SDS011;38310;52.796;6.942;2023-11-19T09:17:58;35.80;;;9.85;;
52380;SDS011;38310;52.796;6.942;2023-11-19T09:20:24;39.08;;;10.57;;
52380;SDS011;38310;52.796;6.942;2023-11-19T09:22:50;38.55;;;11.23;;
52380;SDS011;38310;52.796;6.942;2023-11-19T09:25:16;38.42;;;11.48;;
52380;SDS011;38310;52.796;6.942;2023-11-19T09:27:42;48.30;;;11.82;;
52380;SDS011;38310;52.796;6.942;2023-11-19T09:30:09;42.90;;;12.07;;
52380;SDS011;38310;52.796;6.942;2023-11-19T09:32:35;40.75;;;10.70;;
52380;SDS011;38310;52.796;6.942;2023-11-19T09:35:02;39.88;;;10.98;;
52380;SDS011;38310;52.796;6.942;2023-11-19T09:37:29;52.47;;;12.68;;
52380;SDS011;38310;52.796;6.942;2023-11-19T09:39:54;42.15;;;11.85;;
52380;SDS011;38310;52.796;6.942;2023-11-19T09:42:20;37.95;;;10.85;;
52380;SDS011;38310;52.796;6.942;2023-11-19T09:44:47;43.33;;;13.00;;
52380;SDS011;38310;52.796;6.942;2023-11-19T09:47:14;39.83;;;12.05;;
52380;SDS011;38310;52.796;6.942;2023-11-19T09:49:41;39.55;;;11.13;;
52380;SDS011;38310;52.796;6.942;2023-11-19T09:52:08;47.53;;;11.98;;
52380;SDS011;38310;52.796;6.942;2023-11-19T09:54:34;44.25;;;11.38;;
52380;SDS011;38310;52.796;6.942;2023-11-19T09:57:00;42.92;;;11.15;;
52380;SDS011;38310;52.796;6.942;2023-11-19T09:59:31;28.88;;;9.63;;
52380;SDS011;38310;52.796;6.942;2023-11-19T10:01:59;40.42;;;11.38;;
52380;SDS011;38310;52.796;6.942;2023-11-19T10:04:25;35.33;;;9.95;;
52380;SDS011;38310;52.796;6.942;2023-11-19T10:06:52;42.40;;;11.52;;
52380;SDS011;38310;52.796;6.942;2023-11-19T10:09:18;35.65;;;10.43;;
52380;SDS011;38310;52.796;6.942;2023-11-19T10:11:44;40.90;;;10.65;;
52380;SDS011;38310;52.796;6.942;2023-11-19T10:14:10;39.78;;;11.15;;
52380;SDS011;38310;52.796;6.942;2023-11-19T10:16:36;34.10;;;9.90;;
52380;SDS011;38310;52.796;6.942;2023-11-19T10:19:03;35.75;;;9.55;;
52380;SDS011;38310;52.796;6.942;2023-11-19T10:21:32;34.92;;;10.65;;
52380;SDS011;38310;52.796;6.942;2023-11-19T10:23:59;38.53;;;10.80;;
52380;SDS011;38310;52.796;6.942;2023-11-19T10:26:25;37.83;;;9.70;;
52380;SDS011;38310;52.796;6.942;2023-11-19T10:28:52;35.08;;;11.32;;
52380;SDS011;38310;52.796;6.942;2023-11-19T10:31:19;41.92;;;11.85;;
52380;SDS011;38310;52.796;6.942;2023-11-19T10:33:50;36.58;;;10.32;;
52380;SDS011;38310;52.796;6.942;2023-11-19T10:36:16;41.65;;;11.05;;
52380;SDS011;38310;52.796;6.942;2023-11-19T10:38:56;36.80;;;10.77;;
52380;SDS011;38310;52.796;6.942;2023-11-19T10:41:31;37.97;;;11.18;;
52380;SDS011;38310;52.796;6.942;2023-11-19T10:43:58;36.10;;;10.93;;
52380;SDS011;38310;52.796;6.942;2023-11-19T10:46:36;37.67;;;10.93;;
52380;SDS011;38310;52.796;6.942;2023-11-19T10:49:05;45.28;;;12.93;;
52380;SDS011;38310;52.796;6.942;2023-11-19T10:51:32;46.80;;;13.02;;
52380;SDS011;38310;52.796;6.942;2023-11-19T10:54:05;42.03;;;10.40;;
52380;SDS011;38310;52.796;6.942;2023-11-19T10:56:31;35.35;;;11.00;;
52380;SDS011;38310;52.796;6.942;2023-11-19T10:58:58;38.22;;;11.10;;
52380;SDS011;38310;52.796;6.942;2023-11-19T11:01:33;39.25;;;11.25;;
52380;SDS011;38310;52.796;6.942;2023-11-19T11:04:05;38.60;;;10.85;;
52380;SDS011;38310;52.796;6.942;2023-11-19T11:06:40;34.30;;;10.93;;
52380;SDS011;38310;52.796;6.942;2023-11-19T11:09:07;36.55;;;11.82;;
52380;SDS011;38310;52.796;6.942;2023-11-19T11:11:37;42.35;;;11.48;;
52380;SDS011;38310;52.796;6.942;2023-11-19T11:14:05;38.17;;;11.27;;
52380;SDS011;38310;52.796;6.942;2023-11-19T11:16:32;46.22;;;12.15;;
52380;SDS011;38310;52.796;6.942;2023-11-19T11:18:59;43.58;;;11.02;;
52380;SDS011;38310;52.796;6.942;2023-11-19T11:21:25;44.58;;;12.10;;
52380;SDS011;38310;52.796;6.942;2023-11-19T11:32:25;37.88;;;10.88;;
52380;SDS011;38310;52.796;6.942;2023-11-19T11:38:04;37.50;;;9.98;;
52380;SDS011;38310;52.796;6.942;2023-11-19T11:40:32;48.90;;;11.85;;
52380;SDS011;38310;52.796;6.942;2023-11-19T11:42:58;39.63;;;11.60;;
52380;SDS011;38310;52.796;6.942;2023-11-19T11:45:37;40.33;;;11.50;;
52380;SDS011;38310;52.796;6.942;2023-11-19T11:48:05;43.80;;;12.55;;
52380;SDS011;38310;52.796;6.942;2023-11-19T11:50:50;39.22;;;10.93;;
52380;SDS011;38310;52.796;6.942;2023-11-19T11:53:18;45.80;;;11.05;;
52380;SDS011;38310;52.796;6.942;2023-11-19T11:58:13;37.83;;;10.77;;
52380;SDS011;38310;52.796;6.942;2023-11-19T12:00:42;35.15;;;10.35;;
52380;SDS011;38310;52.796;6.942;2023-11-19T12:03:08;44.75;;;10.38;;
52380;SDS011;38310;52.796;6.942;2023-11-19T12:05:45;28.65;;;8.48;;
52380;SDS011;38310;52.796;6.942;2023-11-19T12:08:12;35.83;;;10.82;;
52380;SDS011;38310;52.796;6.942;2023-11-19T12:13:16;35.97;;;11.10;;
52380;SDS011;38310;52.796;6.942;2023-11-19T12:18:29;38.15;;;9.88;;
52380;SDS011;38310;52.796;6.942;2023-11-19T12:20:59;28.45;;;8.48;;
52380;SDS011;38310;52.796;6.942;2023-11-19T12:23:28;27.67;;;9.02;;
52380;SDS011;38310;52.796;6.942;2023-11-19T12:25:55;26.52;;;8.60;;
52380;SDS011;38310;52.796;6.942;2023-11-19T12:28:21;29.50;;;8.85;;
52380;SDS011;38310;52.796;6.942;2023-11-19T12:30:49;35.40;;;9.57;;
52380;SDS011;38310;52.796;6.942;2023-11-19T12:33:15;29.88;;;9.23;;
52380;SDS011;38310;52.796;6.942;2023-11-19T12:35:45;27.65;;;7.97;;
52380;SDS011;38310;52.796;6.942;2023-11-19T12:38:23;23.75;;;8.00;;
52380;SDS011;38310;52.796;6.942;2023-11-19T12:41:06;24.88;;;8.38;;
52380;SDS011;38310;52.796;6.942;2023-11-19T12:43:32;31.83;;;8.80;;
52380;SDS011;38310;52.796;6.942;2023-11-19T12:46:00;33.30;;;9.00;;
52380;SDS011;38310;52.796;6.942;2023-11-19T12:48:25;28.58;;;9.43;;
52380;SDS011;38310;52.796;6.942;2023-11-19T12:53:21;43.08;;;10.70;;
52380;SDS011;38310;52.796;6.942;2023-11-19T12:55:48;36.05;;;9.85;;
52380;SDS011;38310;52.796;6.942;2023-11-19T12:58:35;32.67;;;9.95;;
52380;SDS011;38310;52.796;6.942;2023-11-19T13:01:07;31.60;;;9.55;;
52380;SDS011;38310;52.796;6.942;2023-11-19T13:06:02;39.05;;;10.65;;
52380;SDS011;38310;52.796;6.942;2023-11-19T13:08:43;37.72;;;10.18;;
52380;SDS011;38310;52.796;6.942;2023-11-19T13:11:11;43.03;;;11.05;;
52380;SDS011;38310;52.796;6.942;2023-11-19T13:13:53;37.92;;;10.15;;
52380;SDS011;38310;52.796;6.942;2023-11-19T13:16:23;37.00;;;10.55;;
52380;SDS011;38310;52.796;6.942;2023-11-19T13:18:49;37.45;;;11.15;;
52380;SDS011;38310;52.796;6.942;2023-11-19T13:21:16;32.28;;;9.30;;
52380;SDS011;38310;52.796;6.942;2023-11-19T13:23:43;50.47;;;11.60;;
52380;SDS011;38310;52.796;6.942;2023-11-19T13:26:09;40.72;;;10.45;;
52380;SDS011;38310;52.796;6.942;2023-11-19T13:28:36;38.03;;;10.40;;
52380;SDS011;38310;52.796;6.942;2023-11-19T13:31:02;31.92;;;9.60;;
52380;SDS011;38310;52.796;6.942;2023-11-19T13:33:28;34.25;;;9.38;;
52380;SDS011;38310;52.796;6.942;2023-11-19T13:35:54;37.60;;;9.80;;
52380;SDS011;38310;52.796;6.942;2023-11-19T13:38:21;40.22;;;10.55;;
52380;SDS011;38310;52.796;6.942;2023-11-19T13:40:48;37.30;;;10.15;;
52380;SDS011;38310;52.796;6.942;2023-11-19T13:43:13;33.50;;;9.90;;
52380;SDS011;38310;52.796;6.942;2023-11-19T13:45:40;32.58;;;10.13;;
52380;SDS011;38310;52.796;6.942;2023-11-19T13:48:05;34.30;;;8.95;;
52380;SDS011;38310;52.796;6.942;2023-11-19T13:50:31;40.88;;;9.55;;
52380;SDS011;38310;52.796;6.942;2023-11-19T13:52:59;31.23;;;9.60;;
52380;SDS011;38310;52.796;6.942;2023-11-19T13:55:25;34.03;;;10.50;;
52380;SDS011;38310;52.796;6.942;2023-11-19T13:57:51;35.35;;;9.38;;
52380;SDS011;38310;52.796;6.942;2023-11-19T14:00:17;33.72;;;10.32;;
52380;SDS011;38310;52.796;6.942;2023-11-19T14:02:44;36.35;;;10.55;;
52380;SDS011;38310;52.796;6.942;2023-11-19T14:05:12;34.60;;;9.32;;
52380;SDS011;38310;52.796;6.942;2023-11-19T14:07:41;41.30;;;10.07;;
52380;SDS011;38310;52.796;6.942;2023-11-19T14:10:09;37.47;;;9.05;;
52380;SDS011;38310;52.796;6.942;2023-11-19T14:12:39;28.02;;;9.27;;
52380;SDS011;38310;52.796;6.942;2023-11-19T14:15:05;38.35;;;9.30;;
52380;SDS011;38310;52.796;6.942;2023-11-19T14:17:34;27.90;;;9.02;;
52380;SDS011;38310;52.796;6.942;2023-11-19T14:20:03;27.48;;;8.98;;
52380;SDS011;38310;52.796;6.942;2023-11-19T14:22:45;28.13;;;8.70;;
52380;SDS011;38310;52.796;6.942;2023-11-19T14:25:15;26.88;;;9.43;;
52380;SDS011;38310;52.796;6.942;2023-11-19T14:27:42;35.28;;;9.18;;
52380;SDS011;38310;52.796;6.942;2023-11-19T14:30:10;29.90;;;8.40;;
52380;SDS011;38310;52.796;6.942;2023-11-19T14:32:38;34.30;;;9.50;;
52380;SDS011;38310;52.796;6.942;2023-11-19T14:35:05;31.48;;;8.75;;
52380;SDS011;38310;52.796;6.942;2023-11-19T14:37:32;34.35;;;10.02;;
52380;SDS011;38310;52.796;6.942;2023-11-19T14:39:58;25.88;;;8.52;;
52380;SDS011;38310;52.796;6.942;2023-11-19T14:42:25;32.17;;;9.23;;
52380;SDS011;38310;52.796;6.942;2023-11-19T14:44:53;34.75;;;8.88;;
52380;SDS011;38310;52.796;6.942;2023-11-19T14:47:20;32.85;;;8.10;;
52380;SDS011;38310;52.796;6.942;2023-11-19T14:49:47;47.90;;;9.32;;
52380;SDS011;38310;52.796;6.942;2023-11-19T14:52:13;30.25;;;9.13;;